Seleccionar otra fecha ( ocultar este área )

Unidades Periodo Rango personalizado Directamente a
Metric English Ambos
Diario Semanal Mensual Anual
use both date-selectors for a custom range
previo Día
Con esta fecha

Gráficos de WeatherUnderground para este periodo ( Click aquí ) Loading the graph can take up to a minute!


Diario Resumen para Jueves 23 May 2024
Hora Temp. ( °C ) P. Rocío ( °C ) Viento ( km/h ) Desde Ráfaga ( km/h ) Presión ( hPa ) Hum.( % ) Ratio de Prec. ( cm ) Solar ( W/m2 )
Máxima31,2 9,0 18,0 NE ( 905/2260 ) 26,0 1016,7 54 - 966.1
Media22,9 7,4 9,2 NE #100/246 12,0 1015,0 39 - 559 #161/246
Mínima16,0 5,8 3,0   4,0 1011,8 21 -  
Diario Detalles para Jueves 23 May 2024
Hora Temp. ( °C ) P. Rocío ( °C ) Viento ( km/h ) Desde Ráfaga ( km/h ) Presión ( hPa ) Hum.( % ) Ratio de Prec. ( cm ) Solar ( W/m2 )
00:04 20,1 8,8 7,0 Norte 7,0 1016,5 48 - -
00:09 20,1 8,8 6,0 NNE 7,0 1016,5 48 - -
00:14 20,1 8,8 6,0 NNE 6,0 1016,4 48 - -
00:19 20,0 8,7 6,0 NNE 7,0 1016,5 48 - -
00:24 19,9 8,9 6,0 NNE 7,0 1016,5 49 - -
00:29 19,9 8,9 6,0 NNE 7,0 1016,6 49 - -
00:34 19,9 8,9 11,0 Norte 13,0 1016,6 49 - -
00:39 20,0 9,0 6,0 Norte 7,0 1016,5 49 - -
00:44 19,8 8,8 6,0 Norte 7,0 1016,7 49 - -
00:49 19,6 8,9 6,0 Norte 7,0 1016,6 50 - -
00:54 19,6 8,9 7,0 Norte 11,0 1016,6 50 - -
00:59 19,5 8,8 6,0 NNE 7,0 1016,5 50 - -
01:04 19,3 8,6 5,0 NE 6,0 1016,6 50 - -
01:09 19,2 8,8 6,0 NNE 11,0 1016,5 51 - -
01:14 19,3 8,6 10,0 Norte 11,0 1016,4 50 - -
01:19 19,3 8,6 7,0 NNE 9,0 1016,4 50 - -
01:24 19,5 8,4 11,0 NNE 13,0 1016,5 49 - -
01:29 19,5 8,5 11,0 Norte 13,0 1016,5 49 - -
01:34 19,5 8,2 12,0 Norte 13,0 1016,4 48 - -
01:39 19,5 8,2 10,0 NNE 11,0 1016,4 48 - -
01:44 19,4 8,1 10,0 Norte 13,0 1016,5 48 - -
01:49 19,3 8,2 8,0 NNE 9,0 1016,4 49 - -
01:54 19,2 8,2 8,0 Norte 11,0 1016,5 49 - -
01:59 19,1 8,2 6,0 NNE 9,0 1016,5 49 - -
02:04 19,1 8,2 9,0 Norte 13,0 1016,3 49 - -
02:09 19,1 8,2 8,0 Norte 9,0 1016,2 49 - -
02:14 19,1 8,2 9,0 Norte 11,0 1016,2 49 - -
02:19 18,9 8,0 9,0 NNW 11,0 1016,2 49 - -
02:24 18,9 8,0 10,0 Norte 11,0 1016,3 49 - -
02:29 18,8 7,9 9,0 NNE 9,0 1016,3 49 - -
02:34 18,7 8,1 6,0 NNE 9,0 1016,3 50 - -
02:39 18,6 8,0 10,0 Norte 11,0 1016,3 50 - -
02:44 18,6 8,0 9,0 NNE 11,0 1016,3 50 - -
02:49 18,5 7,9 9,0 NNE 13,0 1016,3 50 - -
02:54 18,6 7,7 9,0 Norte 13,0 1016,3 49 - -
02:59 18,7 7,8 11,0 Norte 15,0 1016,2 49 - -
03:04 18,6 7,7 9,0 NNE 11,0 1016,2 49 - -
03:09 18,5 7,6 10,0 NNE 13,0 1016,3 49 - -
03:14 18,5 7,6 7,0 NNE 9,0 1016,3 49 - -
03:19 18,4 7,5 6,0 NE 7,0 1016,2 49 - -
03:24 18,3 7,4 8,0 NNE 11,0 1016,3 49 - -
03:29 18,3 7,1 9,0 NNE 11,0 1016,3 48 - -
03:34 18,3 7,1 10,0 NNE 15,0 1016,3 48 - -
03:39 18,3 7,4 9,0 NNE 13,0 1016,3 49 - -
03:44 18,2 7,3 7,0 NE 9,0 1016,3 49 - -
03:49 18,2 7,3 8,0 NE 11,0 1016,2 49 - -
03:54 18,0 7,4 5,0 NE 7,0 1016,2 50 - -
03:59 17,8 7,5 4,0 NE 6,0 1016,2 51 - -
04:04 17,5 7,5 4,0 ENE 6,0 1016,2 52 - -
04:09 17,2 7,5 4,0 ENE 4,0 1016,2 53 - -
04:14 17,1 7,2 4,0 NE 6,0 1015,9 52 - -
04:19 17,1 7,2 4,0 ENE 6,0 1016,0 52 - -
04:24 17,0 7,1 3,0 NE 4,0 1016,0 52 - -
04:29 17,1 7,2 5,0 ENE 6,0 1015,9 52 - -
04:34 17,0 7,1 6,0 NE 6,0 1015,7 52 - -
04:39 17,1 7,2 6,0 NE 9,0 1015,8 52 - -
04:44 17,3 7,1 7,0 NE 9,0 1015,8 51 - -
04:49 17,3 7,1 6,0 NE 7,0 1015,8 51 - -
04:54 17,2 7,0 6,0 NE 9,0 1015,7 51 - -
04:59 17,1 6,9 7,0 NE 9,0 1015,8 51 - -
05:04 17,0 7,0 5,0 ENE 7,0 1015,7 52 - -
05:09 16,8 6,9 6,0 NE 9,0 1015,8 52 - -
05:14 16,7 6,8 7,0 NE 9,0 1015,7 52 - -
05:19 16,6 6,7 7,0 NE 11,0 1015,5 52 - -
05:24 16,7 6,8 6,0 NE 9,0 1015,7 52 - -
05:29 16,7 6,8 9,0 NE 11,0 1015,6 52 - -
05:34 16,8 6,9 9,0 NE 11,0 1015,6 52 - -
05:39 16,8 6,9 8,0 NE 11,0 1015,5 52 - -
05:44 16,7 6,8 8,0 NE 11,0 1015,7 52 - -
05:49 16,6 6,7 8,0 NE 11,0 1015,5 52 - -
05:54 16,6 6,7 7,0 NE 9,0 1015,6 52 - -
05:59 16,5 6,6 8,0 NE 9,0 1015,5 52 - -
06:04 16,5 6,6 8,0 NE 13,0 1015,5 52 - -
06:09 16,5 6,6 9,0 ENE 13,0 1015,5 52 - -
06:14 16,5 6,6 9,0 NE 11,0 1015,5 52 - -
06:19 16,5 6,6 8,0 ENE 11,0 1015,4 52 - -
06:24 16,5 6,6 9,0 NE 11,0 1015,3 52 - -
06:29 16,5 6,9 8,0 NE 9,0 1015,5 53 - -
06:34 16,4 6,8 9,0 NE 11,0 1015,6 53 - -
06:39 16,4 6,8 9,0 NE 13,0 1015,6 53 - -
06:44 16,2 6,6 8,0 NE 11,0 1015,5 53 - -
06:49 16,2 6,6 8,0 NE 11,0 1015,5 53 - -
06:54 16,3 6,7 8,0 NE 11,0 1015,5 53 - -
06:59 16,2 6,6 7,0 NE 9,0 1015,4 53 - -
07:04 16,2 6,6 6,0 NE 9,0 1015,5 53 - -
07:09 16,2 6,9 7,0 NE 11,0 1015,5 54 - 1.2
07:14 16,1 6,8 6,0 NE 9,0 1015,4 54 - 3.4
07:19 16,0 6,7 9,0 NE 13,0 1015,5 54 - 6.5
07:24 16,1 6,8 7,0 NE 9,0 1015,6 54 - 10.8
07:29 16,2 6,9 9,0 NE 11,0 1015,6 54 - 15.2
07:34 16,3 6,9 9,0 NE 11,0 1015,6 54 - 19.5
07:39 16,4 6,8 7,0 NE 11,0 1015,7 53 - 24.7
07:44 16,6 7,0 9,0 NE 11,0 1015,8 53 - 29.9
07:49 16,7 7,1 9,0 NE 11,0 1015,8 53 - 34.3
07:54 16,9 7,0 6,0 NE 9,0 1015,7 52 - 37.2
07:59 16,9 7,0 8,0 NE 11,0 1015,7 52 - 42.9
08:04 16,9 7,0 8,0 NE 9,0 1015,8 52 - 50.3
08:09 16,9 7,0 8,0 NE 9,0 1015,9 52 - 56.3
08:14 17,0 7,1 9,0 NE 11,0 1015,7 52 - 62.4
08:19 17,1 7,2 10,0 NNE 13,0 1015,8 52 - 68.9
08:24 17,2 7,3 9,0 NE 13,0 1015,6 52 - 75.8
08:29 17,3 7,3 8,0 NE 11,0 1015,7 52 - 84.5
08:34 17,6 7,3 9,0 NNE 11,0 1015,7 51 - 94.1
08:39 17,7 7,2 12,0 NNE 13,0 1015,7 50 - 91.5
08:44 17,7 7,2 9,0 NE 13,0 1015,8 50 - 97.5
08:49 17,7 7,5 9,0 NE 11,0 1015,8 51 - 113.7
08:54 17,6 7,4 10,0 NE 15,0 1015,9 51 - 124.4
08:59 17,6 7,4 9,0 NE 11,0 1015,9 51 - 127.1
09:04 17,6 7,6 11,0 NE 15,0 1016,0 52 - 151.8
09:09 17,7 7,6 9,0 NE 9,0 1015,9 52 - 161.4
09:14 17,8 7,8 11,0 NE 11,0 1015,9 52 - 160
09:19 17,9 7,8 11,0 NE 15,0 1016,0 52 - 158.3
09:24 17,9 7,6 12,0 NNE 17,0 1015,8 51 - 140.9
09:29 18,1 7,8 9,0 NE 11,0 1015,8 51 - 168.2
09:34 18,3 7,7 9,0 NNE 13,0 1015,9 50 - 188.3
09:39 18,4 7,8 11,0 NE 15,0 1015,9 50 - 214.2
09:44 18,6 7,9 10,0 NNE 13,0 1015,7 50 - 235.5
09:49 18,9 7,9 10,0 NNE 13,0 1015,8 49 - 248.1
09:54 19,0 7,7 11,0 NNE 15,0 1015,8 48 - 305.4
09:59 19,3 8,0 10,0 NNE 15,0 1015,9 48 - 338.3
10:04 19,4 8,1 12,0 NE 17,0 1015,9 48 - 340.1
10:09 19,6 8,1 11,0 NNE 15,0 1015,9 48 - 350.5
10:14 20,2 8,3 11,0 NE 15,0 1016,0 47 - 397.7
10:19 20,5 7,9 12,0 NE 15,0 1015,9 44 - 418.1
10:24 20,8 8,0 14,0 NE 17,0 1015,9 44 - 437.7
10:29 21,0 7,9 14,0 NE 17,0 1015,9 43 - 442.9
10:34 21,5 7,9 11,0 NE 17,0 1015,9 42 - 552.2
10:39 21,8 8,2 11,0 NNE 15,0 1016,0 42 - 596.9
10:44 21,7 8,1 11,0 NE 11,0 1015,9 42 - 613.8
10:49 22,1 7,9 13,0 NE 15,0 1015,9 40 - 646.3
10:54 22,3 7,9 11,0 NE 15,0 1016,0 40 - 650.2
10:59 22,6 8,3 11,0 ENE 13,0 1015,9 40 - 628.6
11:04 22,8 8,2 11,0 NE 15,0 1015,9 39 - 669.3
11:09 22,8 8,2 12,0 NE 15,0 1016,1 39 - 692.3
11:14 23,1 8,0 12,0 NE 13,0 1015,7 38 - 655
11:19 23,1 8,1 11,0 NE 17,0 1015,7 38 - 773.9
11:24 23,1 7,6 14,0 ENE 17,0 1015,7 37 - 846.3
11:29 23,6 7,7 12,0 NE 17,0 1015,8 37 - 845
11:34 23,9 7,8 11,0 ENE 17,0 1015,7 36 - 871.5
11:39 24,1 7,5 13,0 ENE 17,0 1015,7 35 - 841.5
11:44 24,2 7,4 12,0 NE 15,0 1015,7 34 - 869.7
11:49 24,3 7,5 11,0 NE 15,0 1015,6 34 - 839.8
11:54 24,3 7,5 12,0 NE 13,0 1015,6 34 - 853.7
11:59 24,6 7,7 14,0 ENE 17,0 1015,5 34 - 864.5
12:04 24,9 7,8 10,0 ENE 15,0 1015,6 34 - 866.8
12:09 25,2 7,8 11,0 Este 15,0 1015,5 33 - 904.1
12:14 25,2 8,3 12,0 NE 18,0 1015,5 34 - 901.9
12:19 24,8 7,9 11,0 NE 15,0 1015,6 34 - 836.8
12:24 25,2 8,3 10,0 NE 13,0 1015,6 34 - 837.1
12:29 25,6 8,4 12,0 ENE 18,0 1015,5 34 - 814.3
12:34 25,6 8,2 12,0 ENE 17,0 1015,4 33 - 748.7
12:39 25,5 8,1 16,0 ENE 22,0 1015,5 33 - 707.1
12:44 25,5 8,1 13,0 NE 18,0 1015,3 33 - 862
12:49 25,9 8,1 11,0 ENE 15,0 1015,3 33 - 879.7
12:54 25,9 8,0 13,0 NNE 17,0 1015,3 32 - 898.8
12:59 26,1 8,0 13,0 NE 15,0 1015,3 32 - 944
13:04 26,5 7,8 13,0 NE 15,0 1015,2 31 - 904.1
13:09 26,1 7,7 12,0 NE 15,0 1015,3 31 - 875.4
13:14 26,5 7,6 11,0 ENE 13,0 1015,2 31 - 881.9
13:19 26,5 7,6 14,0 ENE 17,0 1015,0 30 - 784.3
13:24 26,6 7,6 13,0 ENE 22,0 1015,1 30 - 874.5
13:29 26,6 7,6 15,0 NE 18,0 1015,1 30 - 928.3
13:34 27,1 7,5 12,0 ENE 15,0 1015,1 30 - 960.8
13:39 27,1 7,6 12,0 NE 22,0 1014,9 29 - 966.1
13:44 27,4 7,8 15,0 NE 24,0 1014,9 29 - 963.4
13:49 27,4 7,3 9,0 NE 13,0 1014,9 28 - 925.2
13:54 27,2 7,2 12,0 ENE 18,0 1014,9 28 - 925.2
13:59 27,8 7,3 7,0 Este 9,0 1014,8 28 - 931.8
14:04 27,9 7,8 9,0 ENE 15,0 1014,8 28 - 903.6
14:09 27,9 7,6 9,0 Este 11,0 1014,8 28 - 868.5
14:14 28,3 7,6 7,0 Este 9,0 1014,7 27 - 864.1
14:19 28,2 7,4 9,0 ENE 11,0 1014,6 27 - 829
14:24 28,2 7,2 9,0 ENE 15,0 1014,8 27 - 867.6
14:29 27,8 6,6 12,0 Este 18,0 1014,7 26 - 901.9
14:34 28,5 7,2 11,0 ESE 15,0 1014,6 26 - 902.2
14:39 28,5 7,7 14,0 SW 18,0 1014,4 27 - 866.8
14:44 27,8 7,1 8,0 SSW 9,0 1014,6 27 - 795.2
14:49 28,0 6,8 12,0 SW 15,0 1014,6 27 - 855
14:54 28,2 7,5 17,0 Este 20,0 1014,4 27 - 843.3
14:59 28,8 8,0 16,0 NE 26,0 1014,4 27 - 861.1
15:04 28,5 7,7 11,0 NNE 15,0 1014,3 27 - 892.3
15:09 28,0 7,6 12,0 NW 17,0 1014,3 28 - 914.8
15:14 27,6 7,5 11,0 WSW 15,0 1014,2 28 - 910.5
15:19 28,4 7,4 8,0 SSE 9,0 1014,1 28 - 889.8
15:24 28,5 7,2 8,0 Norte 13,0 1014,1 26 - 863.7
15:29 28,9 7,6 6,0 ESE 9,0 1014,0 27 - 833.3
15:34 29,7 7,6 6,0 SE 9,0 1013,9 25 - 838.1
15:39 29,9 7,2 6,0 ESE 9,0 1013,7 24 - 855.4
15:44 30,0 7,9 12,0 NW 18,0 1013,7 25 - 858.1
15:46 29,5 7,5 4,0 SW 6,0 1013,7 25 - 860.6
15:54 29,2 7,2 17,0 NNE 20,0 1013,6 25 - 890.1
15:59 29,2 7,6 13,0 NW 17,0 1013,7 26 - 904.4
16:04 29,6 7,5 10,0 NNE 15,0 1013,6 25 - 908.3
16:09 29,6 7,8 11,0 NE 13,0 1013,5 26 - 906.1
16:14 30,5 7,7 6,0 ENE 9,0 1013,4 25 - 860.6
16:19 30,6 7,8 12,0 Norte 15,0 1013,3 25 - 878
16:24 29,6 7,5 11,0 Norte 13,0 1013,2 25 - 884
16:29 29,5 7,5 11,0 Norte 15,0 1013,2 25 - 876.3
16:34 29,4 7,4 10,0 NNW 11,0 1013,1 25 - 876.3
16:39 30,0 7,4 9,0 NNE 11,0 1013,1 25 - 852
16:44 30,0 7,7 8,0 NNE 9,0 1013,0 25 - 848
16:49 30,1 7,9 8,0 NNW 9,0 1013,0 25 - 740.9
16:54 30,5 7,4 5,0 NE 9,0 1012,8 24 - 727.9
16:59 31,2 7,7 6,0 Este 9,0 1012,8 23 - 719.6
17:04 31,2 7,7 7,0 NE 7,0 1012,8 24 - 670.7
17:09 29,8 7,0 4,0 ENE 6,0 1012,8 24 - 648
17:14 29,8 7,1 6,0 Sur 7,0 1012,7 24 - 732.2
17:19 30,5 7,7 15,0 ENE 20,0 1012,8 24 - 737
17:24 30,1 7,4 9,0 Norte 13,0 1012,7 24 - 675.4
17:29 30,1 7,1 9,0 NE 11,0 1012,7 24 - 650.7
17:34 30,3 6,9 7,0 Este 9,0 1012,6 24 - 635.9
17:39 30,6 7,2 11,0 NNW 13,0 1012,6 23 - 582.9
17:44 29,8 6,5 12,0 Norte 15,0 1012,5 23 - 569.6
17:49 29,8 6,5 8,0 NNE 9,0 1012,5 23 - 636.4
17:54 29,8 7,0 9,0 NE 11,0 1012,5 24 - 668.9
17:59 29,9 6,6 8,0 NE 9,0 1012,5 23 - 672.4
18:04 29,9 6,6 8,0 NNE 9,0 1012,5 23 - 523.1
18:09 29,9 7,2 9,0 Norte 11,0 1012,5 24 - 518.3
18:14 29,9 6,6 7,0 NE 9,0 1012,4 23 - 499.7
18:19 30,0 6,7 7,0 NNE 9,0 1012,4 23 - 540.5
18:24 30,1 6,7 11,0 NE 13,0 1012,5 23 - 573
18:29 30,1 6,5 6,0 NE 7,0 1012,4 23 - 576.1
18:34 30,4 6,3 6,0 Este 7,0 1012,4 22 - 549.5
18:39 30,6 7,0 13,0 Norte 17,0 1012,3 23 - 522.3
18:44 30,4 6,9 11,0 ENE 17,0 1012,2 23 - 453.3
18:49 30,2 6,8 14,0 ENE 18,0 1012,2 23 - 482.7
18:54 30,1 6,7 16,0 Este 18,0 1012,4 23 - 491.9
18:59 30,8 6,7 11,0 ESE 13,0 1012,1 23 - 474.9
19:04 30,9 6,1 9,0 NNE 11,0 1012,0 21 - 444.2
19:09 30,7 6,6 17,0 ESE 20,0 1012,1 22 - 411.7
19:14 30,4 6,9 18,0 ENE 20,0 1012,1 23 - 334.8
19:19 29,9 6,6 13,0 ENE 18,0 1012,0 23 - 307.1
19:24 30,8 6,7 6,0 ESE 7,0 1012,0 23 - 302.8
19:29 31,0 6,2 6,0 Este 9,0 1012,0 21 - 285.4
19:34 30,9 6,1 8,0 Este 11,0 1012,0 21 - 266.7
19:39 30,6 5,8 9,0 Este 9,0 1011,9 21 - 258.5
19:44 30,7 5,9 6,0 ENE 7,0 1011,9 21 - 248.5
19:49 30,8 6,7 9,0 SE 11,0 1011,9 22 - 220.3
19:54 30,5 6,4 6,0 ESE 6,0 1011,8 22 - 184.7
19:59 31,0 6,8 6,0 ESE 9,0 1012,0 22 - 196.5
20:04 30,8 6,7 6,0 ENE 9,0 1011,8 22 - 188.3
20:09 30,4 6,3 5,0 ENE 7,0 1011,8 22 - 171.8
20:14 30,3 6,3 4,0 ENE 7,0 1012,2 22 - 141.8
20:19 30,4 6,8 6,0 Este 7,0 1011,9 23 - 135.7
20:24 30,4 6,7 7,0 ENE 9,0 1012,0 23 - 119.6
20:29 30,0 6,0 6,0 ESE 7,0 1011,9 22 - 107.9
Diario Resumen para Jueves 23 May 2024
Hora Temp. ( °C ) P. Rocío ( °C ) Viento ( km/h ) Desde Ráfaga ( km/h ) Presión ( hPa ) Hum.( % ) Ratio de Prec. ( cm ) Solar ( W/m2 )
Máxima31,2 9,0 18,0 NE ( 905/2260 ) 26,0 1016,7 54 - 966.1
Media22,9 7,4 9,2 NE #100/246 12,0 1015,0 39 - 559 #161/246
Mínima16,0 5,8 3,0   4,0 1011,8 21 -  
Diario Detalles para Jueves 23 May 2024
Hora Temp. ( °C ) P. Rocío ( °C ) Viento ( km/h ) Desde Ráfaga ( km/h ) Presión ( hPa ) Hum.( % ) Ratio de Prec. ( cm ) Solar ( W/m2 )
00:04 20,1 8,8 7,0 Norte 7,0 1016,5 48 - -
00:09 20,1 8,8 6,0 NNE 7,0 1016,5 48 - -
00:14 20,1 8,8 6,0 NNE 6,0 1016,4 48 - -
00:19 20,0 8,7 6,0 NNE 7,0 1016,5 48 - -
00:24 19,9 8,9 6,0 NNE 7,0 1016,5 49 - -
00:29 19,9 8,9 6,0 NNE 7,0 1016,6 49 - -
00:34 19,9 8,9 11,0 Norte 13,0 1016,6 49 - -
00:39 20,0 9,0 6,0 Norte 7,0 1016,5 49 - -
00:44 19,8 8,8 6,0 Norte 7,0 1016,7 49 - -
00:49 19,6 8,9 6,0 Norte 7,0 1016,6 50 - -
00:54 19,6 8,9 7,0 Norte 11,0 1016,6 50 - -
00:59 19,5 8,8 6,0 NNE 7,0 1016,5 50 - -
01:04 19,3 8,6 5,0 NE 6,0 1016,6 50 - -
01:09 19,2 8,8 6,0 NNE 11,0 1016,5 51 - -
01:14 19,3 8,6 10,0 Norte 11,0 1016,4 50 - -
01:19 19,3 8,6 7,0 NNE 9,0 1016,4 50 - -
01:24 19,5 8,4 11,0 NNE 13,0 1016,5 49 - -
01:29 19,5 8,5 11,0 Norte 13,0 1016,5 49 - -
01:34 19,5 8,2 12,0 Norte 13,0 1016,4 48 - -
01:39 19,5 8,2 10,0 NNE 11,0 1016,4 48 - -
01:44 19,4 8,1 10,0 Norte 13,0 1016,5 48 - -
01:49 19,3 8,2 8,0 NNE 9,0 1016,4 49 - -
01:54 19,2 8,2 8,0 Norte 11,0 1016,5 49 - -
01:59 19,1 8,2 6,0 NNE 9,0 1016,5 49 - -
02:04 19,1 8,2 9,0 Norte 13,0 1016,3 49 - -
02:09 19,1 8,2 8,0 Norte 9,0 1016,2 49 - -
02:14 19,1 8,2 9,0 Norte 11,0 1016,2 49 - -
02:19 18,9 8,0 9,0 NNW 11,0 1016,2 49 - -
02:24 18,9 8,0 10,0 Norte 11,0 1016,3 49 - -
02:29 18,8 7,9 9,0 NNE 9,0 1016,3 49 - -
02:34 18,7 8,1 6,0 NNE 9,0 1016,3 50 - -
02:39 18,6 8,0 10,0 Norte 11,0 1016,3 50 - -
02:44 18,6 8,0 9,0 NNE 11,0 1016,3 50 - -
02:49 18,5 7,9 9,0 NNE 13,0 1016,3 50 - -
02:54 18,6 7,7 9,0 Norte 13,0 1016,3 49 - -
02:59 18,7 7,8 11,0 Norte 15,0 1016,2 49 - -
03:04 18,6 7,7 9,0 NNE 11,0 1016,2 49 - -
03:09 18,5 7,6 10,0 NNE 13,0 1016,3 49 - -
03:14 18,5 7,6 7,0 NNE 9,0 1016,3 49 - -
03:19 18,4 7,5 6,0 NE 7,0 1016,2 49 - -
03:24 18,3 7,4 8,0 NNE 11,0 1016,3 49 - -
03:29 18,3 7,1 9,0 NNE 11,0 1016,3 48 - -
03:34 18,3 7,1 10,0 NNE 15,0 1016,3 48 - -
03:39 18,3 7,4 9,0 NNE 13,0 1016,3 49 - -
03:44 18,2 7,3 7,0 NE 9,0 1016,3 49 - -
03:49 18,2 7,3 8,0 NE 11,0 1016,2 49 - -
03:54 18,0 7,4 5,0 NE 7,0 1016,2 50 - -
03:59 17,8 7,5 4,0 NE 6,0 1016,2 51 - -
04:04 17,5 7,5 4,0 ENE 6,0 1016,2 52 - -
04:09 17,2 7,5 4,0 ENE 4,0 1016,2 53 - -
04:14 17,1 7,2 4,0 NE 6,0 1015,9 52 - -
04:19 17,1 7,2 4,0 ENE 6,0 1016,0 52 - -
04:24 17,0 7,1 3,0 NE 4,0 1016,0 52 - -
04:29 17,1 7,2 5,0 ENE 6,0 1015,9 52 - -
04:34 17,0 7,1 6,0 NE 6,0 1015,7 52 - -
04:39 17,1 7,2 6,0 NE 9,0 1015,8 52 - -
04:44 17,3 7,1 7,0 NE 9,0 1015,8 51 - -
04:49 17,3 7,1 6,0 NE 7,0 1015,8 51 - -
04:54 17,2 7,0 6,0 NE 9,0 1015,7 51 - -
04:59 17,1 6,9 7,0 NE 9,0 1015,8 51 - -
05:04 17,0 7,0 5,0 ENE 7,0 1015,7 52 - -
05:09 16,8 6,9 6,0 NE 9,0 1015,8 52 - -
05:14 16,7 6,8 7,0 NE 9,0 1015,7 52 - -
05:19 16,6 6,7 7,0 NE 11,0 1015,5 52 - -
05:24 16,7 6,8 6,0 NE 9,0 1015,7 52 - -
05:29 16,7 6,8 9,0 NE 11,0 1015,6 52 - -
05:34 16,8 6,9 9,0 NE 11,0 1015,6 52 - -
05:39 16,8 6,9 8,0 NE 11,0 1015,5 52 - -
05:44 16,7 6,8 8,0 NE 11,0 1015,7 52 - -
05:49 16,6 6,7 8,0 NE 11,0 1015,5 52 - -
05:54 16,6 6,7 7,0 NE 9,0 1015,6 52 - -
05:59 16,5 6,6 8,0 NE 9,0 1015,5 52 - -
06:04 16,5 6,6 8,0 NE 13,0 1015,5 52 - -
06:09 16,5 6,6 9,0 ENE 13,0 1015,5 52 - -
06:14 16,5 6,6 9,0 NE 11,0 1015,5 52 - -
06:19 16,5 6,6 8,0 ENE 11,0 1015,4 52 - -
06:24 16,5 6,6 9,0 NE 11,0 1015,3 52 - -
06:29 16,5 6,9 8,0 NE 9,0 1015,5 53 - -
06:34 16,4 6,8 9,0 NE 11,0 1015,6 53 - -
06:39 16,4 6,8 9,0 NE 13,0 1015,6 53 - -
06:44 16,2 6,6 8,0 NE 11,0 1015,5 53 - -
06:49 16,2 6,6 8,0 NE 11,0 1015,5 53 - -
06:54 16,3 6,7 8,0 NE 11,0 1015,5 53 - -
06:59 16,2 6,6 7,0 NE 9,0 1015,4 53 - -
07:04 16,2 6,6 6,0 NE 9,0 1015,5 53 - -
07:09 16,2 6,9 7,0 NE 11,0 1015,5 54 - 1.2
07:14 16,1 6,8 6,0 NE 9,0 1015,4 54 - 3.4
07:19 16,0 6,7 9,0 NE 13,0 1015,5 54 - 6.5
07:24 16,1 6,8 7,0 NE 9,0 1015,6 54 - 10.8
07:29 16,2 6,9 9,0 NE 11,0 1015,6 54 - 15.2
07:34 16,3 6,9 9,0 NE 11,0 1015,6 54 - 19.5
07:39 16,4 6,8 7,0 NE 11,0 1015,7 53 - 24.7
07:44 16,6 7,0 9,0 NE 11,0 1015,8 53 - 29.9
07:49 16,7 7,1 9,0 NE 11,0 1015,8 53 - 34.3
07:54 16,9 7,0 6,0 NE 9,0 1015,7 52 - 37.2
07:59 16,9 7,0 8,0 NE 11,0 1015,7 52 - 42.9
08:04 16,9 7,0 8,0 NE 9,0 1015,8 52 - 50.3
08:09 16,9 7,0 8,0 NE 9,0 1015,9 52 - 56.3
08:14 17,0 7,1 9,0 NE 11,0 1015,7 52 - 62.4
08:19 17,1 7,2 10,0 NNE 13,0 1015,8 52 - 68.9
08:24 17,2 7,3 9,0 NE 13,0 1015,6 52 - 75.8
08:29 17,3 7,3 8,0 NE 11,0 1015,7 52 - 84.5
08:34 17,6 7,3 9,0 NNE 11,0 1015,7 51 - 94.1
08:39 17,7 7,2 12,0 NNE 13,0 1015,7 50 - 91.5
08:44 17,7 7,2 9,0 NE 13,0 1015,8 50 - 97.5
08:49 17,7 7,5 9,0 NE 11,0 1015,8 51 - 113.7
08:54 17,6 7,4 10,0 NE 15,0 1015,9 51 - 124.4
08:59 17,6 7,4 9,0 NE 11,0 1015,9 51 - 127.1
09:04 17,6 7,6 11,0 NE 15,0 1016,0 52 - 151.8
09:09 17,7 7,6 9,0 NE 9,0 1015,9 52 - 161.4
09:14 17,8 7,8 11,0 NE 11,0 1015,9 52 - 160
09:19 17,9 7,8 11,0 NE 15,0 1016,0 52 - 158.3
09:24 17,9 7,6 12,0 NNE 17,0 1015,8 51 - 140.9
09:29 18,1 7,8 9,0 NE 11,0 1015,8 51 - 168.2
09:34 18,3 7,7 9,0 NNE 13,0 1015,9 50 - 188.3
09:39 18,4 7,8 11,0 NE 15,0 1015,9 50 - 214.2
09:44 18,6 7,9 10,0 NNE 13,0 1015,7 50 - 235.5
09:49 18,9 7,9 10,0 NNE 13,0 1015,8 49 - 248.1
09:54 19,0 7,7 11,0 NNE 15,0 1015,8 48 - 305.4
09:59 19,3 8,0 10,0 NNE 15,0 1015,9 48 - 338.3
10:04 19,4 8,1 12,0 NE 17,0 1015,9 48 - 340.1
10:09 19,6 8,1 11,0 NNE 15,0 1015,9 48 - 350.5
10:14 20,2 8,3 11,0 NE 15,0 1016,0 47 - 397.7
10:19 20,5 7,9 12,0 NE 15,0 1015,9 44 - 418.1
10:24 20,8 8,0 14,0 NE 17,0 1015,9 44 - 437.7
10:29 21,0 7,9 14,0 NE 17,0 1015,9 43 - 442.9
10:34 21,5 7,9 11,0 NE 17,0 1015,9 42 - 552.2
10:39 21,8 8,2 11,0 NNE 15,0 1016,0 42 - 596.9
10:44 21,7 8,1 11,0 NE 11,0 1015,9 42 - 613.8
10:49 22,1 7,9 13,0 NE 15,0 1015,9 40 - 646.3
10:54 22,3 7,9 11,0 NE 15,0 1016,0 40 - 650.2
10:59 22,6 8,3 11,0 ENE 13,0 1015,9 40 - 628.6
11:04 22,8 8,2 11,0 NE 15,0 1015,9 39 - 669.3
11:09 22,8 8,2 12,0 NE 15,0 1016,1 39 - 692.3
11:14 23,1 8,0 12,0 NE 13,0 1015,7 38 - 655
11:19 23,1 8,1 11,0 NE 17,0 1015,7 38 - 773.9
11:24 23,1 7,6 14,0 ENE 17,0 1015,7 37 - 846.3
11:29 23,6 7,7 12,0 NE 17,0 1015,8 37 - 845
11:34 23,9 7,8 11,0 ENE 17,0 1015,7 36 - 871.5
11:39 24,1 7,5 13,0 ENE 17,0 1015,7 35 - 841.5
11:44 24,2 7,4 12,0 NE 15,0 1015,7 34 - 869.7
11:49 24,3 7,5 11,0 NE 15,0 1015,6 34 - 839.8
11:54 24,3 7,5 12,0 NE 13,0 1015,6 34 - 853.7
11:59 24,6 7,7 14,0 ENE 17,0 1015,5 34 - 864.5
12:04 24,9 7,8 10,0 ENE 15,0 1015,6 34 - 866.8
12:09 25,2 7,8 11,0 Este 15,0 1015,5 33 - 904.1
12:14 25,2 8,3 12,0 NE 18,0 1015,5 34 - 901.9
12:19 24,8 7,9 11,0 NE 15,0 1015,6 34 - 836.8
12:24 25,2 8,3 10,0 NE 13,0 1015,6 34 - 837.1
12:29 25,6 8,4 12,0 ENE 18,0 1015,5 34 - 814.3
12:34 25,6 8,2 12,0 ENE 17,0 1015,4 33 - 748.7
12:39 25,5 8,1 16,0 ENE 22,0 1015,5 33 - 707.1
12:44 25,5 8,1 13,0 NE 18,0 1015,3 33 - 862
12:49 25,9 8,1 11,0 ENE 15,0 1015,3 33 - 879.7
12:54 25,9 8,0 13,0 NNE 17,0 1015,3 32 - 898.8
12:59 26,1 8,0 13,0 NE 15,0 1015,3 32 - 944
13:04 26,5 7,8 13,0 NE 15,0 1015,2 31 - 904.1
13:09 26,1 7,7 12,0 NE 15,0 1015,3 31 - 875.4
13:14 26,5 7,6 11,0 ENE 13,0 1015,2 31 - 881.9
13:19 26,5 7,6 14,0 ENE 17,0 1015,0 30 - 784.3
13:24 26,6 7,6 13,0 ENE 22,0 1015,1 30 - 874.5
13:29 26,6 7,6 15,0 NE 18,0 1015,1 30 - 928.3
13:34 27,1 7,5 12,0 ENE 15,0 1015,1 30 - 960.8
13:39 27,1 7,6 12,0 NE 22,0 1014,9 29 - 966.1
13:44 27,4 7,8 15,0 NE 24,0 1014,9 29 - 963.4
13:49 27,4 7,3 9,0 NE 13,0 1014,9 28 - 925.2
13:54 27,2 7,2 12,0 ENE 18,0 1014,9 28 - 925.2
13:59 27,8 7,3 7,0 Este 9,0 1014,8 28 - 931.8
14:04 27,9 7,8 9,0 ENE 15,0 1014,8 28 - 903.6
14:09 27,9 7,6 9,0 Este 11,0 1014,8 28 - 868.5
14:14 28,3 7,6 7,0 Este 9,0 1014,7 27 - 864.1
14:19 28,2 7,4 9,0 ENE 11,0 1014,6 27 - 829
14:24 28,2 7,2 9,0 ENE 15,0 1014,8 27 - 867.6
14:29 27,8 6,6 12,0 Este 18,0 1014,7 26 - 901.9
14:34 28,5 7,2 11,0 ESE 15,0 1014,6 26 - 902.2
14:39 28,5 7,7 14,0 SW 18,0 1014,4 27 - 866.8
14:44 27,8 7,1 8,0 SSW 9,0 1014,6 27 - 795.2
14:49 28,0 6,8 12,0 SW 15,0 1014,6 27 - 855
14:54 28,2 7,5 17,0 Este 20,0 1014,4 27 - 843.3
14:59 28,8 8,0 16,0 NE 26,0 1014,4 27 - 861.1
15:04 28,5 7,7 11,0 NNE 15,0 1014,3 27 - 892.3
15:09 28,0 7,6 12,0 NW 17,0 1014,3 28 - 914.8
15:14 27,6 7,5 11,0 WSW 15,0 1014,2 28 - 910.5
15:19 28,4 7,4 8,0 SSE 9,0 1014,1 28 - 889.8
15:24 28,5 7,2 8,0 Norte 13,0 1014,1 26 - 863.7
15:29 28,9 7,6 6,0 ESE 9,0 1014,0 27 - 833.3
15:34 29,7 7,6 6,0 SE 9,0 1013,9 25 - 838.1
15:39 29,9 7,2 6,0 ESE 9,0 1013,7 24 - 855.4
15:44 30,0 7,9 12,0 NW 18,0 1013,7 25 - 858.1
15:46 29,5 7,5 4,0 SW 6,0 1013,7 25 - 860.6
15:54 29,2 7,2 17,0 NNE 20,0 1013,6 25 - 890.1
15:59 29,2 7,6 13,0 NW 17,0 1013,7 26 - 904.4
16:04 29,6 7,5 10,0 NNE 15,0 1013,6 25 - 908.3
16:09 29,6 7,8 11,0 NE 13,0 1013,5 26 - 906.1
16:14 30,5 7,7 6,0 ENE 9,0 1013,4 25 - 860.6
16:19 30,6 7,8 12,0 Norte 15,0 1013,3 25 - 878
16:24 29,6 7,5 11,0 Norte 13,0 1013,2 25 - 884
16:29 29,5 7,5 11,0 Norte 15,0 1013,2 25 - 876.3
16:34 29,4 7,4 10,0 NNW 11,0 1013,1 25 - 876.3
16:39 30,0 7,4 9,0 NNE 11,0 1013,1 25 - 852
16:44 30,0 7,7 8,0 NNE 9,0 1013,0 25 - 848
16:49 30,1 7,9 8,0 NNW 9,0 1013,0 25 - 740.9
16:54 30,5 7,4 5,0 NE 9,0 1012,8 24 - 727.9
16:59 31,2 7,7 6,0 Este 9,0 1012,8 23 - 719.6
17:04 31,2 7,7 7,0 NE 7,0 1012,8 24 - 670.7
17:09 29,8 7,0 4,0 ENE 6,0 1012,8 24 - 648
17:14 29,8 7,1 6,0 Sur 7,0 1012,7 24 - 732.2
17:19 30,5 7,7 15,0 ENE 20,0 1012,8 24 - 737
17:24 30,1 7,4 9,0 Norte 13,0 1012,7 24 - 675.4
17:29 30,1 7,1 9,0 NE 11,0 1012,7 24 - 650.7
17:34 30,3 6,9 7,0 Este 9,0 1012,6 24 - 635.9
17:39 30,6 7,2 11,0 NNW 13,0 1012,6 23 - 582.9
17:44 29,8 6,5 12,0 Norte 15,0 1012,5 23 - 569.6
17:49 29,8 6,5 8,0 NNE 9,0 1012,5 23 - 636.4
17:54 29,8 7,0 9,0 NE 11,0 1012,5 24 - 668.9
17:59 29,9 6,6 8,0 NE 9,0 1012,5 23 - 672.4
18:04 29,9 6,6 8,0 NNE 9,0 1012,5 23 - 523.1
18:09 29,9 7,2 9,0 Norte 11,0 1012,5 24 - 518.3
18:14 29,9 6,6 7,0 NE 9,0 1012,4 23 - 499.7
18:19 30,0 6,7 7,0 NNE 9,0 1012,4 23 - 540.5
18:24 30,1 6,7 11,0 NE 13,0 1012,5 23 - 573
18:29 30,1 6,5 6,0 NE 7,0 1012,4 23 - 576.1
18:34 30,4 6,3 6,0 Este 7,0 1012,4 22 - 549.5
18:39 30,6 7,0 13,0 Norte 17,0 1012,3 23 - 522.3
18:44 30,4 6,9 11,0 ENE 17,0 1012,2 23 - 453.3
18:49 30,2 6,8 14,0 ENE 18,0 1012,2 23 - 482.7
18:54 30,1 6,7 16,0 Este 18,0 1012,4 23 - 491.9
18:59 30,8 6,7 11,0 ESE 13,0 1012,1 23 - 474.9
19:04 30,9 6,1 9,0 NNE 11,0 1012,0 21 - 444.2
19:09 30,7 6,6 17,0 ESE 20,0 1012,1 22 - 411.7
19:14 30,4 6,9 18,0 ENE 20,0 1012,1 23 - 334.8
19:19 29,9 6,6 13,0 ENE 18,0 1012,0 23 - 307.1
19:24 30,8 6,7 6,0 ESE 7,0 1012,0 23 - 302.8
19:29 31,0 6,2 6,0 Este 9,0 1012,0 21 - 285.4
19:34 30,9 6,1 8,0 Este 11,0 1012,0 21 - 266.7
19:39 30,6 5,8 9,0 Este 9,0 1011,9 21 - 258.5
19:44 30,7 5,9 6,0 ENE 7,0 1011,9 21 - 248.5
19:49 30,8 6,7 9,0 SE 11,0 1011,9 22 - 220.3
19:54 30,5 6,4 6,0 ESE 6,0 1011,8 22 - 184.7
19:59 31,0 6,8 6,0 ESE 9,0 1012,0 22 - 196.5
20:04 30,8 6,7 6,0 ENE 9,0 1011,8 22 - 188.3
20:09 30,4 6,3 5,0 ENE 7,0 1011,8 22 - 171.8
20:14 30,3 6,3 4,0 ENE 7,0 1012,2 22 - 141.8
20:19 30,4 6,8 6,0 Este 7,0 1011,9 23 - 135.7
20:24 30,4 6,7 7,0 ENE 9,0 1012,0 23 - 119.6
20:29 30,0 6,0 6,0 ESE 7,0 1011,9 22 - 107.9

Descargar una copia de estos datos  from WeatherUnderground

Our weather-data as stored at Weather Underground. Original script b Jim McMurry. Rewritten for template use Leuven-Template